createdAt,value
2018-12-08T00:01:37.394Z,1.03
2018-12-08T00:04:05.930Z,0.73
2018-12-08T00:06:34.452Z,0.93
2018-12-08T00:09:03.471Z,1.20
2018-12-08T00:11:31.940Z,2.80
2018-12-08T00:14:00.465Z,1.57
2018-12-08T00:16:30.958Z,1.33
2018-12-08T00:18:59.563Z,2.23
2018-12-08T00:21:28.060Z,1.93
2018-12-08T00:23:56.611Z,2.20
2018-12-08T00:26:25.134Z,1.17
2018-12-08T00:28:55.740Z,1.53
2018-12-08T00:31:43.488Z,1.87
2018-12-08T00:34:12.334Z,1.80
2018-12-08T00:36:41.165Z,1.93
2018-12-08T00:39:12.885Z,2.13
2018-12-08T00:41:41.819Z,1.60
2018-12-08T00:44:10.685Z,2.50
2018-12-08T00:46:39.224Z,0.90
2018-12-08T00:49:07.996Z,1.20
2018-12-08T00:51:36.988Z,1.23
2018-12-08T00:54:08.010Z,2.00
2018-12-08T00:56:37.189Z,1.10
2018-12-08T00:59:06.557Z,1.67
2018-12-08T01:01:35.797Z,3.30
2018-12-08T01:04:05.539Z,2.40
2018-12-08T01:06:34.465Z,1.20
2018-12-08T01:09:03.394Z,2.03
2018-12-08T01:11:33.148Z,1.70
2018-12-08T01:14:02.265Z,2.67
2018-12-08T01:16:30.764Z,1.23
2018-12-08T01:18:59.380Z,1.70
2018-12-08T01:21:28.023Z,1.90
2018-12-08T01:24:02.006Z,1.53
2018-12-08T01:26:31.476Z,1.93
2018-12-08T01:29:00.238Z,3.63
2018-12-08T01:31:28.774Z,1.93
2018-12-08T01:33:57.296Z,4.73
2018-12-08T01:36:26.664Z,2.17
2018-12-08T01:38:55.265Z,2.10
2018-12-08T01:41:24.828Z,1.23
2018-12-08T01:43:53.378Z,1.43
2018-12-08T01:46:22.267Z,2.60
2018-12-08T01:48:50.887Z,2.07
2018-12-08T01:51:19.508Z,2.07
2018-12-08T01:53:54.117Z,2.07
2018-12-08T01:56:22.904Z,1.67
2018-12-08T01:58:51.460Z,1.70
2018-12-08T02:01:19.960Z,1.77
2018-12-08T02:03:48.473Z,1.70
2018-12-08T02:06:24.081Z,3.10
2018-12-08T02:08:52.810Z,1.90
2018-12-08T02:11:24.989Z,1.83
2018-12-08T02:13:50.267Z,2.20
2018-12-08T02:16:19.676Z,2.20
2018-12-08T02:18:48.640Z,1.93
2018-12-08T02:21:17.151Z,1.53
2018-12-08T02:23:45.891Z,4.57
2018-12-08T02:26:14.665Z,1.10
2018-12-08T02:28:43.491Z,2.83
2018-12-08T02:31:12.007Z,3.60
2018-12-08T02:33:40.801Z,1.67
2018-12-08T02:36:10.618Z,1.17
2018-12-08T02:38:39.214Z,2.27
2018-12-08T02:41:14.431Z,2.20
2018-12-08T02:43:43.140Z,1.87
2018-12-08T02:46:11.687Z,3.03
2018-12-08T02:48:40.420Z,3.30
2018-12-08T02:51:09.179Z,1.57
2018-12-08T02:53:44.292Z,3.33
2018-12-08T02:56:12.819Z,2.53
2018-12-08T02:58:41.753Z,2.60
2018-12-08T03:01:10.275Z,3.70
2018-12-08T03:03:40.212Z,2.40
2018-12-08T03:06:08.810Z,3.73
2018-12-08T03:08:37.350Z,2.10
2018-12-08T03:11:06.992Z,3.50
2018-12-08T03:13:35.500Z,1.67
2018-12-08T03:18:57.119Z,2.93
2018-12-08T03:21:25.882Z,1.60
2018-12-08T03:23:54.375Z,2.40
2018-12-08T03:26:22.950Z,1.60
2018-12-08T03:29:09.868Z,1.47
2018-12-08T03:31:38.399Z,3.87
2018-12-08T03:34:06.891Z,1.77
2018-12-08T03:36:35.414Z,2.00
2018-12-08T03:39:04.368Z,1.23
2018-12-08T03:41:32.969Z,1.60
2018-12-08T03:44:01.537Z,2.53
2018-12-08T03:46:30.069Z,2.20
2018-12-08T03:48:58.566Z,2.57
2018-12-08T03:51:28.528Z,1.67
2018-12-08T03:53:57.145Z,3.23
2018-12-08T03:56:25.785Z,1.77
2018-12-08T03:58:54.359Z,2.60
2018-12-08T04:01:22.884Z,3.80
2018-12-08T04:03:51.376Z,1.70
2018-12-08T04:06:20.113Z,2.87
2018-12-08T04:08:48.640Z,3.47
2018-12-08T04:11:17.144Z,3.93
2018-12-08T04:13:46.095Z,2.67
2018-12-08T04:16:14.600Z,2.23
2018-12-08T04:18:43.083Z,1.60
2018-12-08T04:21:11.613Z,5.17
2018-12-08T04:23:40.132Z,1.53
2018-12-08T04:26:08.627Z,3.57
2018-12-08T04:28:37.159Z,2.33
2018-12-08T04:31:05.666Z,3.20
2018-12-08T04:33:34.743Z,2.40
2018-12-08T04:36:04.136Z,3.10
2018-12-08T04:38:33.352Z,2.40
2018-12-08T04:41:02.525Z,3.50
2018-12-08T04:43:31.065Z,2.00
2018-12-08T04:46:00.628Z,2.40
2018-12-08T04:48:29.138Z,1.80
2018-12-08T04:50:57.707Z,2.47
2018-12-08T04:53:26.919Z,2.20
2018-12-08T04:55:55.726Z,3.57
2018-12-08T04:58:38.415Z,1.87
2018-12-08T05:01:06.907Z,2.17
2018-12-08T05:03:35.437Z,1.23
2018-12-08T05:06:03.919Z,1.17
2018-12-08T05:08:33.082Z,4.03
2018-12-08T05:11:02.225Z,1.97
2018-12-08T05:13:30.997Z,1.10
2018-12-08T05:15:59.890Z,4.47
2018-12-08T05:18:28.442Z,1.50
2018-12-08T05:20:57.684Z,1.53
2018-12-08T05:23:27.584Z,3.20
2018-12-08T05:25:56.232Z,2.13
2018-12-08T05:28:24.768Z,2.00
2018-12-08T05:30:54.031Z,1.23
2018-12-08T05:33:22.562Z,1.73
2018-12-08T05:35:51.313Z,2.47
2018-12-08T05:38:20.192Z,1.40
2018-12-08T05:40:49.415Z,3.23
2018-12-08T05:43:18.020Z,1.17
2018-12-08T05:45:47.418Z,2.07
2018-12-08T05:48:16.373Z,1.73
2018-12-08T05:50:45.108Z,1.43
2018-12-08T05:53:13.882Z,1.73
2018-12-08T05:55:42.670Z,1.23
2018-12-08T05:58:12.241Z,1.40
2018-12-08T06:00:41.322Z,1.63
2018-12-08T06:03:09.848Z,1.77
2018-12-08T06:05:38.611Z,2.63
2018-12-08T06:08:07.140Z,1.50
2018-12-08T06:10:35.642Z,1.27
2018-12-08T06:13:04.154Z,1.43
2018-12-08T06:15:32.635Z,1.67
2018-12-08T06:18:01.166Z,3.87
2018-12-08T06:20:29.807Z,2.80
2018-12-08T06:22:58.347Z,3.07
2018-12-08T06:25:30.479Z,2.17
2018-12-08T06:28:04.060Z,1.20
2018-12-08T06:30:33.770Z,2.27
2018-12-08T06:33:02.747Z,2.00
2018-12-08T06:35:32.055Z,2.30
2018-12-08T06:38:00.874Z,1.77
2018-12-08T06:40:29.934Z,2.43
2018-12-08T06:42:58.448Z,1.70
2018-12-08T06:45:26.937Z,1.17
2018-12-08T06:47:55.818Z,2.03
2018-12-08T06:50:25.108Z,1.43
2018-12-08T06:52:53.682Z,0.90
2018-12-08T06:55:22.176Z,1.67
2018-12-08T06:57:50.816Z,2.60
2018-12-08T07:00:19.705Z,1.73
2018-12-08T07:02:49.328Z,1.40
2018-12-08T07:05:17.964Z,1.60
2018-12-08T07:07:46.480Z,0.93
2018-12-08T07:10:15.247Z,1.60
2018-12-08T07:12:44.252Z,1.33
2018-12-08T07:15:12.857Z,0.80
2018-12-08T07:17:41.685Z,1.90
2018-12-08T07:20:10.189Z,2.23
2018-12-08T07:22:38.704Z,2.93
2018-12-08T07:25:15.298Z,2.00
2018-12-08T07:27:43.796Z,2.40
2018-12-08T07:30:12.430Z,2.30
2018-12-08T07:32:41.924Z,1.80
2018-12-08T07:35:10.733Z,1.00
2018-12-08T07:37:39.235Z,1.20
2018-12-08T07:40:08.901Z,2.03
2018-12-08T07:42:37.473Z,1.63
2018-12-08T07:45:07.436Z,1.43
2018-12-08T07:47:36.773Z,3.27
2018-12-08T07:50:07.725Z,3.80
2018-12-08T07:52:36.571Z,1.37
2018-12-08T07:55:06.449Z,1.77
2018-12-08T07:57:34.989Z,4.33
2018-12-08T08:00:04.684Z,4.07
2018-12-08T08:02:32.651Z,2.17
2018-12-08T08:05:01.188Z,2.73
2018-12-08T08:07:29.683Z,2.10
2018-12-08T08:09:58.188Z,2.03
2018-12-08T08:12:26.766Z,1.77
2018-12-08T08:14:55.756Z,3.83
2018-12-08T08:17:24.265Z,2.07
2018-12-08T08:19:53.848Z,1.20
2018-12-08T08:22:22.669Z,1.87
2018-12-08T08:24:51.185Z,1.50
2018-12-08T08:27:19.800Z,1.80
2018-12-08T08:29:48.330Z,1.53
2018-12-08T08:32:18.313Z,1.97
2018-12-08T08:34:47.066Z,3.13
2018-12-08T08:37:16.337Z,2.63
2018-12-08T08:39:51.956Z,1.37
2018-12-08T08:42:20.453Z,2.53
2018-12-08T08:44:49.194Z,1.83
2018-12-08T08:47:17.684Z,1.57
2018-12-08T08:49:46.248Z,1.27
2018-12-08T08:52:14.756Z,1.73
2018-12-08T08:54:43.296Z,2.13
2018-12-08T08:57:11.808Z,0.97
2018-12-08T08:59:40.707Z,4.43
2018-12-08T09:02:10.723Z,2.00
2018-12-08T09:04:39.247Z,2.33
2018-12-08T09:07:07.859Z,1.53
2018-12-08T09:09:36.403Z,3.23
2018-12-08T09:12:04.927Z,2.57
2018-12-08T09:14:34.409Z,1.33
2018-12-08T09:17:02.890Z,2.67
2018-12-08T09:19:31.502Z,1.77
2018-12-08T09:22:00.440Z,2.77
2018-12-08T09:24:28.960Z,1.90
2018-12-08T09:26:57.455Z,2.83
2018-12-08T09:29:26.106Z,4.47
2018-12-08T09:31:55.255Z,4.43
2018-12-08T09:34:23.867Z,2.43
2018-12-08T09:36:52.594Z,2.47
2018-12-08T09:39:21.814Z,2.00
2018-12-08T09:41:50.285Z,4.37
2018-12-08T09:44:19.143Z,4.00
2018-12-08T09:46:49.034Z,2.97
2018-12-08T09:49:17.535Z,2.63
2018-12-08T09:51:46.043Z,3.47
2018-12-08T09:54:20.081Z,5.20
2018-12-08T09:56:54.558Z,2.60
2018-12-08T09:59:23.063Z,2.60
2018-12-08T10:01:51.550Z,2.00
2018-12-08T10:04:20.043Z,7.20
2018-12-08T10:06:48.718Z,4.73
2018-12-08T10:09:17.208Z,2.87
2018-12-08T10:11:45.799Z,4.87
2018-12-08T10:14:14.279Z,5.50
2018-12-08T10:16:42.795Z,4.43
2018-12-08T10:19:11.282Z,9.93
2018-12-08T10:21:39.931Z,2.27
2018-12-08T10:24:08.467Z,5.03
2018-12-08T10:26:36.996Z,4.63
2018-12-08T10:29:05.555Z,3.33
2018-12-08T10:31:34.174Z,2.93
2018-12-08T10:34:02.736Z,2.50
2018-12-08T10:36:31.560Z,5.13
2018-12-08T10:39:00.035Z,2.57
2018-12-08T10:41:28.661Z,3.97
2018-12-08T10:43:57.487Z,2.37
2018-12-08T10:46:26.620Z,4.50
2018-12-08T10:48:56.231Z,4.00
2018-12-08T10:51:25.332Z,6.00
2018-12-08T10:53:53.840Z,3.63
2018-12-08T10:56:22.361Z,1.43
2018-12-08T10:58:51.407Z,2.93
2018-12-08T11:01:24.433Z,1.90
2018-12-08T11:03:53.035Z,2.47
2018-12-08T11:06:22.480Z,1.70
2018-12-08T11:08:50.990Z,3.33
2018-12-08T11:11:20.035Z,3.20
2018-12-08T11:13:48.748Z,4.60
2018-12-08T11:16:17.276Z,2.47
2018-12-08T11:18:49.443Z,2.90
2018-12-08T11:21:18.066Z,3.57
2018-12-08T11:23:46.936Z,1.97
2018-12-08T11:26:15.676Z,4.40
2018-12-08T11:28:44.400Z,2.27
2018-12-08T11:31:13.336Z,3.53
2018-12-08T11:33:41.874Z,3.30
2018-12-08T11:36:10.416Z,3.13
2018-12-08T11:38:38.907Z,1.97
2018-12-08T11:41:08.422Z,3.47
2018-12-08T11:43:37.020Z,2.93
2018-12-08T11:46:05.556Z,3.73
2018-12-08T11:48:34.136Z,5.63
2018-12-08T11:51:02.780Z,3.67
2018-12-08T11:53:31.661Z,3.90
2018-12-08T11:56:01.174Z,2.53
2018-12-08T11:58:29.705Z,4.00
2018-12-08T12:01:02.140Z,2.43
2018-12-08T12:03:31.136Z,3.10
2018-12-08T12:05:59.735Z,6.60
2018-12-08T12:08:28.260Z,3.77
2018-12-08T12:10:56.729Z,2.97
2018-12-08T12:13:25.349Z,5.97
2018-12-08T12:15:54.301Z,6.77
2018-12-08T12:18:23.125Z,6.33
2018-12-08T12:20:51.607Z,6.40
2018-12-08T12:23:22.920Z,9.07
2018-12-08T12:25:53.580Z,16.73
2018-12-08T12:28:23.103Z,14.50
2018-12-08T12:31:02.383Z,11.37
2018-12-08T12:33:31.910Z,17.03
2018-12-08T12:36:00.470Z,24.97
2018-12-08T12:38:29.916Z,38.77
2018-12-08T12:40:58.459Z,26.33
2018-12-08T12:43:37.171Z,18.75
2018-12-08T12:46:07.381Z,19.07
2018-12-08T12:48:36.487Z,13.17
2018-12-08T12:51:05.167Z,17.37
2018-12-08T12:53:34.599Z,17.97
2018-12-08T12:56:03.949Z,8.70
2018-12-08T12:58:33.368Z,12.37
2018-12-08T13:01:02.452Z,7.97
2018-12-08T13:03:31.920Z,6.30
2018-12-08T13:06:00.417Z,8.77
2018-12-08T13:08:29.324Z,10.83
2018-12-08T13:10:57.791Z,6.30
2018-12-08T13:13:26.308Z,8.27
2018-12-08T13:15:54.922Z,7.60
2018-12-08T13:18:23.481Z,8.27
2018-12-08T13:20:52.998Z,5.67
2018-12-08T13:23:21.518Z,5.77
2018-12-08T13:25:50.340Z,7.37
2018-12-08T13:28:19.851Z,6.10
2018-12-08T13:30:48.494Z,5.57
2018-12-08T13:33:17.761Z,5.83
2018-12-08T13:35:51.795Z,6.03
2018-12-08T13:38:20.567Z,4.20
2018-12-08T13:40:49.106Z,10.97
2018-12-08T13:43:19.380Z,6.30
2018-12-08T13:45:47.890Z,4.47
2018-12-08T13:48:17.744Z,8.67
2018-12-08T13:50:47.064Z,6.67
2018-12-08T13:53:15.653Z,4.80
2018-12-08T13:55:44.150Z,8.30
2018-12-08T13:58:12.680Z,7.00
2018-12-08T14:00:41.289Z,5.60
2018-12-08T14:03:09.815Z,3.83
2018-12-08T14:05:38.308Z,7.33
2018-12-08T14:08:06.810Z,4.20
2018-12-08T14:10:35.309Z,5.83
2018-12-08T14:13:03.856Z,4.73
2018-12-08T14:18:26.555Z,4.50
2018-12-08T14:20:56.550Z,4.90
2018-12-08T14:23:25.386Z,5.63
2018-12-08T14:25:54.108Z,5.67
2018-12-08T14:28:22.657Z,6.50
2018-12-08T14:30:52.269Z,6.23
2018-12-08T14:33:20.790Z,3.47
2018-12-08T14:35:49.288Z,3.50
2018-12-08T14:38:18.174Z,5.07
2018-12-08T14:40:46.643Z,7.90
2018-12-08T14:43:15.589Z,3.67
2018-12-08T14:45:44.073Z,4.00
2018-12-08T14:48:12.947Z,4.97
2018-12-08T14:50:41.748Z,4.27
2018-12-08T14:53:20.142Z,8.63
2018-12-08T14:55:48.627Z,5.20
2018-12-08T14:58:17.123Z,6.10
2018-12-08T15:00:47.448Z,2.93
2018-12-08T15:03:18.930Z,4.97
2018-12-08T15:05:47.665Z,4.73
2018-12-08T15:08:16.427Z,10.90
2018-12-08T15:10:45.452Z,14.80
2018-12-08T15:13:14.875Z,13.70
2018-12-08T15:15:44.447Z,11.30
2018-12-08T15:18:13.788Z,9.80
2018-12-08T15:20:43.006Z,15.03
2018-12-08T15:35:25.117Z,10.00
2018-12-08T15:37:54.468Z,9.70
2018-12-08T15:40:25.245Z,8.73
2018-12-08T15:42:54.006Z,9.73
2018-12-08T15:45:25.300Z,6.03
2018-12-08T15:47:54.266Z,8.23
2018-12-08T15:50:25.475Z,8.90
2018-12-08T15:52:54.936Z,7.60
2018-12-08T16:00:24.337Z,6.33
2018-12-08T16:02:56.018Z,5.03
2018-12-08T16:05:26.359Z,4.33
2018-12-08T16:07:55.872Z,4.00
2018-12-08T16:10:30.006Z,3.47
2018-12-08T16:13:00.175Z,5.63
2018-12-08T16:15:30.396Z,3.40
2018-12-08T16:17:59.964Z,7.93
2018-12-08T16:20:29.389Z,4.60
2018-12-08T16:22:58.769Z,4.80
2018-12-08T16:25:28.189Z,6.77
2018-12-08T16:27:57.591Z,5.43
2018-12-08T16:30:26.480Z,6.13
2018-12-08T16:32:55.117Z,6.67
2018-12-08T16:35:23.616Z,6.73
2018-12-08T16:37:57.103Z,4.73
2018-12-08T16:40:25.647Z,3.30
2018-12-08T16:42:55.108Z,5.17
2018-12-08T16:45:25.287Z,6.77
2018-12-08T16:47:54.081Z,3.60
2018-12-08T16:50:24.841Z,3.10
2018-12-08T16:52:54.252Z,6.93
2018-12-08T16:55:24.021Z,3.70
2018-12-08T16:57:52.961Z,4.33
2018-12-08T17:00:22.477Z,4.20
2018-12-08T17:02:52.070Z,4.10
2018-12-08T17:05:21.170Z,3.17
2018-12-08T17:07:53.060Z,3.73
2018-12-08T17:10:21.796Z,3.57
2018-12-08T17:12:52.616Z,2.97
2018-12-08T17:15:22.631Z,4.70
2018-12-08T17:17:51.424Z,4.73
2018-12-08T17:20:21.053Z,2.80
2018-12-08T17:22:57.180Z,3.23
2018-12-08T17:25:27.621Z,4.17
2018-12-08T17:27:58.874Z,4.27
2018-12-08T17:30:28.912Z,5.97
2018-12-08T17:32:59.566Z,3.67
2018-12-08T17:35:28.102Z,3.07
2018-12-08T17:37:58.651Z,5.63
2018-12-08T17:40:28.636Z,2.73
2018-12-08T17:42:58.073Z,2.00
2018-12-08T17:45:27.053Z,3.60
2018-12-08T17:47:56.819Z,4.80
2018-12-08T17:50:25.703Z,3.30
